Rittman, OH (44270)

4:55 PM EDT on May 24, 2017 (GMT -0400)
Guilford Twp, Rawiga Rd | | Change Station

Elev 1120 ft 41.00 °N, 81.82 °W | Updated 10 seconds ago

Overcast
Overcast
59.8 °F
Feels Like 59.8 °F
N
2.0
Wind Variable Wind from ESE
Gusts 2.0 mph

Today
High -- | Low -- °F
--% Chance of Precip.
Yesterday
High -- | Low -- °F
Precip. -- in
Pressure 29.53 in
Visibility 9.0 miles
Clouds Overcast 1000 ft
Dew Point 59 °F
Humidity 97%
Rainfall 0.20 in
Snow Depth Not available.
6:01 AM 8:46 PM
Waning Crescent, 1% visible
METAR KBJJ 241956Z AUTO 12010KT 9SM OVC010 16/14 A2953 RMK AO2 RAB04E18 CIG 007V013 SLP999 P0001 T01560144
Pressure 29.53 in
Visibility 9.0 miles
Clouds Overcast 1000 ft
Dew Point 59 °F
Humidity 97%
Rainfall 0.20 in
Snow Depth Not available.
6:01 AM 8:46 PM
Waning Crescent, 1% visible
METAR KBJJ 241956Z AUTO 12010KT 9SM OVC010 16/14 A2953 RMK AO2 RAB04E18 CIG 007V013 SLP999 P0001 T01560144

Get Severe Weather Alerts

Thanks for signing up!

Be on the lookout for a verification email in your inbox.

You'll start receiving the daily forecast at 6 AM.

×

10-Day Weather Forecast

Almanac

Astronomy

May. 24, 2017 Rise Set
Actual Time
Civil Twilight
Nautical Twilight
Astronomical Twilight
Moon
Length of Visible Light
Length of Day
Tomorrow will be .
, % of the Moon is Illuminated

Today's Extremes

State Highs State Lows

Community

WunderPhotos

Category 6

Welcome to Category 6. This is the collective home for Weather Underground's featured writeups by Dr. Jeff Masters (right), Bob Henson (left), Chris Burt, and other regular contributors.

Nearby

Air Quality

  Air Quality AQ Index Pollutant
Not available.

Snow Depth

Station Depth Elevation

Earthquake Activity

City Distance Mag. Time & Date
Minimum magnitude displayed is 2.5.

Coastal Water Temperatures

Place Temperature

Stations

Nearby Weather Stations

Station Location Temp. Windchill Dew Point Humidity Wind Precip. Elev Updated Type
                   

Watches & Warnings

There are currently no watches in effect.